Time;durP1;ratioP1;P1;durP2;ratioP2;P2;SDS_P1;SDS_P2;PMS_P1;PMS_P2;Temp;Humidity;BMP_temperature;BMP_pressure;BME280_temperature;BME280_humidity;BME280_pressure;Samples;Min_cycle;Max_cycle;Signal;HPM_P1;HPM_P2
2021/04/19 00:00:53;;;;;;;23.10;20.70;;;8.90;99.90;;;;;;5074274;28;20701;-53
2021/04/19 00:03:19;;;;;;;22.77;20.37;;;8.90;99.90;;;;;;5074514;28;20175;-53
2021/04/19 00:05:45;;;;;;;23.23;20.73;;;8.90;99.90;;;;;;5056658;28;20201;-57
2021/04/19 00:08:10;;;;;;;23.63;21.03;;;8.90;99.90;;;;;;5074464;28;20175;-50
2021/04/19 00:10:36;;;;;;;23.97;21.47;;;8.90;99.90;;;;;;5074213;28;20202;-58
2021/04/19 00:13:02;;;;;;;25.93;22.47;;;8.90;99.90;;;;;;5074009;28;20201;-56
2021/04/19 00:15:29;;;;;;;28.20;23.83;;;8.80;99.90;;;;;;5074111;28;20266;-59
2021/04/19 00:17:55;;;;;;;31.27;26.60;;;8.70;99.90;;;;;;5073059;28;20174;-51
2021/04/19 00:20:20;;;;;;;37.93;30.57;;;8.50;99.90;;;;;;5073883;28;20248;-52
2021/04/19 00:22:46;;;;;;;30.00;25.43;;;8.40;99.90;;;;;;5073937;28;20187;-52
2021/04/19 00:25:12;;;;;;;26.23;22.53;;;8.50;99.90;;;;;;5074081;28;20220;-51
2021/04/19 00:27:38;;;;;;;24.30;21.00;;;8.50;99.90;;;;;;5073986;28;20604;-51
2021/04/19 00:30:05;;;;;;;24.87;22.17;;;8.60;99.90;;;;;;5074141;28;20174;-56
2021/04/19 00:32:31;;;;;;;24.67;22.00;;;8.70;99.90;;;;;;5073503;28;20182;-54
2021/04/19 00:34:57;;;;;;;24.43;21.60;;;8.70;99.90;;;;;;5074136;28;20167;-50
2021/04/19 00:37:22;;;;;;;24.13;21.13;;;8.80;99.90;;;;;;5054361;28;20209;-55
2021/04/19 00:39:48;;;;;;;24.03;21.43;;;8.70;99.90;;;;;;5063139;28;20324;-53
2021/04/19 00:42:15;;;;;;;25.33;21.73;;;8.80;99.90;;;;;;5062433;28;20202;-52
2021/04/19 00:44:40;;;;;;;24.40;21.87;;;8.80;99.90;;;;;;5067018;28;20163;-59
2021/04/19 00:47:06;;;;;;;25.47;22.07;;;8.70;99.90;;;;;;5060280;28;20224;-58
2021/04/19 00:49:32;;;;;;;24.77;21.53;;;8.70;99.90;;;;;;5053795;28;20163;-55
2021/04/19 00:51:59;;;;;;;25.47;22.13;;;8.70;99.90;;;;;;5053518;28;20535;-57
2021/04/19 00:54:25;;;;;;;24.60;21.93;;;8.70;99.90;;;;;;5058957;28;20228;-50
2021/04/19 00:56:52;;;;;;;25.63;22.07;;;8.70;99.90;;;;;;5063873;28;20191;-58
2021/04/19 00:59:18;;;;;;;24.73;22.10;;;8.70;99.90;;;;;;5062584;28;20167;-52
2021/04/19 01:01:45;;;;;;;25.80;23.03;;;8.70;99.90;;;;;;5063017;28;20194;-57
2021/04/19 01:04:11;;;;;;;23.77;21.10;;;8.80;99.90;;;;;;5063831;28;20167;-59
2021/04/19 01:06:37;;;;;;;24.60;21.27;;;8.80;99.90;;;;;;5056141;28;20201;-58
2021/04/19 01:09:04;;;;;;;25.30;22.60;;;8.80;99.90;;;;;;5053628;28;20171;-51
2021/04/19 01:11:29;;;;;;;24.57;21.67;;;8.80;99.90;;;;;;5053357;28;20199;-53
2021/04/19 01:13:55;;;;;;;25.37;21.90;;;8.70;99.90;;;;;;5053565;28;20183;-56
2021/04/19 01:16:20;;;;;;;24.00;21.40;;;8.70;99.90;;;;;;5053553;28;20190;-59
2021/04/19 01:18:46;;;;;;;26.10;22.60;;;8.70;99.90;;;;;;5053606;28;20261;-51
2021/04/19 01:21:12;;;;;;;23.90;21.37;;;8.70;99.90;;;;;;5053053;28;20329;-56
2021/04/19 01:23:37;;;;;;;24.53;21.67;;;8.70;99.90;;;;;;5053823;28;20190;-52
2021/04/19 01:26:04;;;;;;;25.00;22.13;;;8.50;99.90;;;;;;5053301;28;20198;-57
2021/04/19 01:28:30;;;;;;;23.83;20.97;;;8.50;99.90;;;;;;5053603;28;20179;-55
2021/04/19 01:30:56;;;;;;;24.30;21.70;;;8.60;99.90;;;;;;5057333;28;20190;-57
2021/04/19 01:33:22;;;;;;;24.23;21.63;;;8.70;99.90;;;;;;5057429;28;20511;-56
2021/04/19 01:35:48;;;;;;;24.23;21.63;;;8.70;99.90;;;;;;5057367;28;20685;-58
2021/04/19 01:38:17;;;;;;;25.07;22.33;;;8.70;99.90;;;;;;5057173;28;20201;-59
2021/04/19 01:40:42;;;;;;;23.40;20.47;;;8.70;99.90;;;;;;5057034;28;20203;-60
2021/04/19 01:43:08;;;;;;;25.73;20.80;;;8.70;99.90;;;;;;5055618;28;20197;-56
2021/04/19 01:45:34;;;;;;;24.40;21.27;;;8.70;99.90;;;;;;5057078;28;20199;-57
2021/04/19 01:48:00;;;;;;;22.60;20.20;;;8.70;99.90;;;;;;5056931;28;20191;-58
2021/04/19 01:50:28;;;;;;;23.73;21.13;;;8.70;99.90;;;;;;5056053;28;20191;-50
2021/04/19 01:52:56;;;;;;;25.27;22.57;;;8.70;99.90;;;;;;5056668;28;20180;-55
2021/04/19 01:55:24;;;;;;;24.13;21.33;;;8.60;99.90;;;;;;5056736;28;20180;-59
2021/04/19 01:58:07;;;;;;;23.23;20.73;;;8.70;99.90;;;;;;5057055;28;20190;-53
2021/04/19 02:00:35;;;;;;;24.17;21.57;;;8.70;99.90;;;;;;5056884;28;20271;-50
2021/04/19 02:03:11;;;;;;;23.60;20.60;;;8.70;99.90;;;;;;5056755;28;20182;-53
2021/04/19 02:05:49;;;;;;;22.90;20.50;;;8.70;99.90;;;;;;5056631;28;20248;-54
2021/04/19 02:08:38;;;;;;;25.77;22.33;;;8.70;99.90;;;;;;5056854;28;20328;-53
2021/04/19 02:11:12;;;;;;;24.03;21.10;;;8.60;99.90;;;;;;5056705;28;20182;-59
2021/04/19 02:14:16;;;;;;;23.43;20.93;;;8.60;99.90;;;;;;5056627;28;20269;-59
2021/04/19 02:16:50;;;;;;;26.13;23.33;;;8.70;99.90;;;;;;5052689;28;20206;-56
2021/04/19 02:19:39;;;;;;;29.70;24.90;;;8.60;99.90;;;;;;5056417;28;20681;-52
2021/04/19 02:22:19;;;;;;;29.17;25.07;;;8.60;99.90;;;;;;5056219;28;20202;-55
2021/04/19 02:24:51;;;;;;;23.73;21.13;;;8.50;99.90;;;;;;5056472;28;20253;-57
2021/04/19 02:27:31;;;;;;;24.70;21.83;;;8.40;99.90;;;;;;5056394;28;20199;-51
2021/04/19 02:29:58;;;;;;;24.10;21.23;;;8.30;99.90;;;;;;5056491;28;20171;-54
2021/04/19 02:32:29;;;;;;;24.77;22.13;;;8.20;99.90;;;;;;5056131;28;20224;-58
2021/04/19 02:34:59;;;;;;;24.77;22.07;;;8.20;99.90;;;;;;5056501;28;20178;-56
2021/04/19 02:37:26;;;;;;;23.77;21.10;;;8.20;99.90;;;;;;5056152;28;20266;-54
2021/04/19 02:39:53;;;;;;;24.20;21.47;;;8.30;99.90;;;;;;5055924;28;20286;-49
2021/04/19 02:42:18;;;;;;;25.23;21.60;;;8.40;99.90;;;;;;5054935;28;20211;-57
2021/04/19 02:44:48;;;;;;;26.00;21.73;;;8.40;99.90;;;;;;5055983;28;20186;-57
2021/04/19 02:47:15;;;;;;;25.73;22.93;;;8.30;99.90;;;;;;5055841;28;20540;-56
2021/04/19 02:49:42;;;;;;;25.33;22.40;;;8.40;99.90;;;;;;5068773;28;20202;-53
2021/04/19 02:52:10;;;;;;;24.17;21.57;;;8.40;99.90;;;;;;5075589;28;20511;-54
2021/04/19 02:54:39;;;;;;;22.47;20.10;;;8.40;99.90;;;;;;5075182;28;20190;-55
2021/04/19 02:57:28;;;;;;;24.33;21.57;;;8.50;99.90;;;;;;5075921;28;20194;-53
2021/04/19 02:59:54;;;;;;;23.70;20.70;;;8.50;99.90;;;;;;5076289;28;20174;-54
2021/04/19 03:02:24;;;;;;;23.53;20.37;;;8.40;99.90;;;;;;5075525;28;20210;-59
2021/04/19 03:04:51;;;;;;;23.30;20.80;;;8.50;99.90;;;;;;5075892;28;20183;-57
2021/04/19 03:07:19;;;;;;;23.70;20.87;;;8.50;99.90;;;;;;5075776;28;20196;-53
2021/04/19 03:09:52;;;;;;;25.83;21.87;;;8.50;99.90;;;;;;5075641;28;20186;-58
2021/04/19 03:12:24;;;;;;;23.70;21.20;;;8.60;99.90;;;;;;5075396;28;20178;-50
2021/04/19 03:14:55;;;;;;;25.23;22.07;;;8.50;99.90;;;;;;5075647;28;20331;-57
2021/04/19 03:17:24;;;;;;;23.07;20.60;;;8.50;99.90;;;;;;5075600;28;20251;-50
2021/04/19 03:20:04;;;;;;;23.57;21.17;;;8.50;99.90;;;;;;5075616;28;20189;-51
2021/04/19 03:22:30;;;;;;;23.50;20.63;;;8.50;99.90;;;;;;5075188;28;20185;-56
2021/04/19 03:24:57;;;;;;;25.17;21.80;;;8.50;99.90;;;;;;5075324;28;20626;-51
2021/04/19 03:27:27;;;;;;;25.70;22.13;;;8.60;99.90;;;;;;5075246;28;20206;-50
2021/04/19 03:29:52;;;;;;;23.60;21.03;;;8.60;99.90;;;;;;5075293;28;20273;-53
2021/04/19 03:32:24;;;;;;;26.07;21.50;;;8.50;99.90;;;;;;5074903;28;20600;-55
2021/04/19 03:34:50;;;;;;;23.47;20.83;;;8.40;99.90;;;;;;5075303;28;20213;-57
2021/04/19 03:37:19;;;;;;;24.53;21.60;;;8.40;99.90;;;;;;5074731;28;20194;-56
2021/04/19 03:39:51;;;;;;;22.87;20.40;;;8.40;99.90;;;;;;5074898;28;20197;-50
2021/04/19 03:42:18;;;;;;;24.93;20.97;;;8.40;99.90;;;;;;5074720;28;20198;-50
2021/04/19 03:44:45;;;;;;;23.77;21.27;;;8.40;99.90;;;;;;5074919;28;20661;-50
2021/04/19 03:47:12;;;;;;;24.93;22.30;;;8.30;99.90;;;;;;5074730;28;20191;-58
2021/04/19 03:49:53;;;;;;;23.80;21.10;;;8.20;99.90;;;;;;5074669;28;20522;-55
2021/04/19 03:52:24;;;;;;;25.73;21.57;;;8.00;99.90;;;;;;5074601;28;20195;-52
2021/04/19 03:54:51;;;;;;;23.07;20.30;;;7.90;99.90;;;;;;5074963;28;20261;-56
2021/04/19 03:57:21;;;;;;;22.00;19.60;;;7.90;99.90;;;;;;5074798;28;20229;-51
2021/04/19 03:59:54;;;;;;;22.67;19.57;;;8.00;99.90;;;;;;5074784;28;20174;-56
2021/04/19 04:02:22;;;;;;;25.13;21.67;;;8.10;99.90;;;;;;5074371;28;20194;-50
2021/04/19 04:04:49;;;;;;;23.13;20.63;;;8.10;99.90;;;;;;5074512;28;20166;-56
2021/04/19 04:07:16;;;;;;;23.30;20.77;;;8.10;99.90;;;;;;5074293;28;20297;-54
2021/04/19 04:09:42;;;;;;;24.00;21.23;;;8.20;99.90;;;;;;5074659;28;20223;-58
2021/04/19 04:12:09;;;;;;;23.80;21.30;;;8.10;99.90;;;;;;5074207;28;20182;-51
2021/04/19 04:14:36;;;;;;;24.30;21.13;;;8.20;99.90;;;;;;5074392;28;20265;-51
2021/04/19 04:17:03;;;;;;;24.90;21.20;;;8.30;99.90;;;;;;5074127;28;20740;-50
2021/04/19 04:19:28;;;;;;;23.53;21.03;;;8.30;99.90;;;;;;5074322;28;20288;-56
2021/04/19 04:21:55;;;;;;;25.73;22.93;;;8.30;99.90;;;;;;5074089;28;20293;-49
2021/04/19 04:24:21;;;;;;;23.73;21.23;;;8.30;99.90;;;;;;5074340;28;20267;-53
2021/04/19 04:26:47;;;;;;;31.50;27.53;;;8.40;99.90;;;;;;5074153;28;20611;-54
2021/04/19 04:29:12;;;;;;;36.33;31.20;;;8.30;99.90;;;;;;5074030;28;20163;-51
2021/04/19 04:31:38;;;;;;;27.23;22.70;;;8.20;99.90;;;;;;5073886;28;20637;-50
2021/04/19 04:34:03;;;;;;;25.67;22.40;;;8.50;99.90;;;;;;5074086;28;20569;-50
2021/04/19 04:36:29;;;;;;;23.10;20.60;;;8.30;99.90;;;;;;5074158;28;20233;-58
2021/04/19 04:38:54;;;;;;;23.73;21.23;;;8.30;99.90;;;;;;5073833;28;20194;-58
2021/04/19 04:41:20;;;;;;;22.53;19.60;;;8.40;99.90;;;;;;5073688;28;20198;-56
2021/04/19 04:43:47;;;;;;;20.40;18.20;;;8.80;99.90;;;;;;5074041;28;20282;-48
2021/04/19 04:46:38;;;;;;;19.97;17.80;;;8.50;99.90;;;;;;5073736;28;20221;-51
2021/04/19 04:49:14;;;;;;;19.23;17.03;;;8.50;99.90;;;;;;5074003;28;20205;-54
2021/04/19 04:51:42;;;;;;;18.70;16.70;;;8.50;99.90;;;;;;5073773;28;20269;-57
2021/04/19 04:54:15;;;;;;;18.80;16.80;;;8.50;99.90;;;;;;5074149;28;20198;-54
2021/04/19 04:56:47;;;;;;;18.73;16.73;;;8.80;99.90;;;;;;5073997;28;20266;-52
2021/04/19 04:59:13;;;;;;;18.87;16.70;;;8.50;99.90;;;;;;5074144;28;20177;-51
2021/04/19 05:01:43;;;;;;;17.93;16.03;;;8.70;99.90;;;;;;5065021;28;20203;-54
2021/04/19 05:04:09;;;;;;;18.53;16.23;;;8.30;99.90;;;;;;5063564;28;20171;-52
2021/04/19 05:06:35;;;;;;;16.63;14.83;;;8.50;99.90;;;;;;5065507;28;20209;-57
2021/04/19 05:09:02;;;;;;;15.63;14.07;;;8.30;99.90;;;;;;5075696;28;20190;-53
2021/04/19 05:11:27;;;;;;;19.13;17.03;;;8.40;99.90;;;;;;5058440;28;20176;-58
2021/04/19 05:14:00;;;;;;;20.50;18.30;;;8.50;99.90;;;;;;5070119;28;20585;-58
2021/04/19 05:16:26;;;;;;;20.77;18.53;;;8.40;99.90;;;;;;5058925;28;20210;-56
2021/04/19 05:18:53;;;;;;;19.07;15.90;;;8.50;99.90;;;;;;5089788;28;20217;-53
2021/04/19 05:21:19;;;;;;;18.97;16.97;;;8.60;99.90;;;;;;5072138;28;20445;-55
2021/04/19 05:23:44;;;;;;;18.27;16.37;;;8.50;99.90;;;;;;5071965;28;20573;-57
2021/04/19 05:26:11;;;;;;;19.23;16.80;;;8.30;99.90;;;;;;5067116;28;20611;-54
2021/04/19 05:28:38;;;;;;;22.10;19.80;;;8.30;99.90;;;;;;5046403;28;20257;-50
2021/04/19 05:31:03;;;;;;;25.87;23.10;;;8.30;99.90;;;;;;5070041;28;20178;-57
2021/04/19 05:33:29;;;;;;;21.33;19.03;;;8.10;99.90;;;;;;5070780;28;20604;-57
2021/04/19 05:35:56;;;;;;;25.00;20.70;;;7.90;99.90;;;;;;5058941;28;20249;-53
2021/04/19 05:38:23;;;;;;;23.23;19.47;;;7.70;99.90;;;;;;5061454;28;20186;-51
2021/04/19 05:40:50;;;;;;;20.53;18.33;;;7.60;99.90;;;;;;5071696;28;20202;-51
2021/04/19 05:43:16;;;;;;;24.13;19.57;;;;;;;;;;5054348;28;20190;-52
2021/04/19 05:45:43;;;;;;;21.30;19.00;;;7.40;99.90;;;;;;5065038;28;20210;-57
2021/04/19 05:48:09;;;;;;;22.40;18.80;;;7.30;99.90;;;;;;5060668;28;20635;-56
2021/04/19 05:50:35;;;;;;;20.10;17.73;;;7.60;99.90;;;;;;5055041;28;20185;-52
2021/04/19 05:53:02;;;;;;;21.93;19.50;;;7.30;99.90;;;;;;5066210;28;20181;-54
2021/04/19 05:55:32;;;;;;;23.97;20.03;;;7.40;99.90;;;;;;5071308;28;20186;-48
2021/04/19 05:58:16;;;;;;;24.27;21.00;;;7.00;99.90;;;;;;5070549;28;20660;-53
2021/04/19 06:00:54;;;;;;;22.67;19.27;;;7.10;99.90;;;;;;5065350;28;20209;-51
2021/04/19 06:03:26;;;;;;;26.77;21.30;;;7.20;99.90;;;;;;5057376;28;20190;-52
2021/04/19 06:06:15;;;;;;;25.80;22.10;;;7.00;99.90;;;;;;5061036;28;20692;-57
2021/04/19 06:08:53;;;;;;;26.90;22.27;;;6.80;99.90;;;;;;5077566;28;20222;-56
2021/04/19 06:11:28;;;;;;;24.70;21.90;;;6.50;99.90;;;;;;5059533;28;20224;-50
2021/04/19 06:13:55;;;;;;;24.13;21.53;;;7.10;99.90;;;;;;5060657;28;20281;-52
2021/04/19 06:16:23;;;;;;;25.90;22.57;;;7.00;99.90;;;;;;5062483;28;20202;-57
2021/04/19 06:18:49;;;;;;;28.10;24.27;;;7.00;99.90;;;;;;5075743;28;20198;-52
2021/04/19 06:21:15;;;;;;;26.83;22.63;;;7.10;99.90;;;;;;5076089;28;20248;-51
2021/04/19 06:23:41;;;;;;;31.53;26.90;;;7.20;99.90;;;;;;5076613;28;20212;-55
2021/04/19 06:26:10;;;;;;;26.17;23.23;;;7.20;99.90;;;;;;5075989;28;20189;-57
2021/04/19 06:28:37;;;;;;;26.60;23.77;;;7.60;99.90;;;;;;5085007;28;20170;-60
2021/04/19 06:31:04;;;;;;;25.70;23.00;;;7.90;99.90;;;;;;5086237;28;20225;-60
2021/04/19 06:33:30;;;;;;;25.27;22.57;;;7.90;99.90;;;;;;5096855;28;20567;-57
2021/04/19 06:35:56;;;;;;;24.43;21.57;;;8.10;99.90;;;;;;5067662;28;20252;-59
2021/04/19 06:38:22;;;;;;;24.33;21.73;;;8.30;99.90;;;;;;5073436;28;20194;-59
2021/04/19 06:40:48;;;;;;;26.13;22.63;;;8.50;99.90;;;;;;5076548;28;20206;-59
2021/04/19 06:43:13;;;;;;;24.33;21.27;;;8.40;99.90;;;;;;5075987;28;20170;-55
2021/04/19 06:45:40;;;;;;;24.87;22.17;;;8.50;99.90;;;;;;5076252;28;20202;-58
2021/04/19 06:48:08;;;;;;;26.40;23.53;;;8.80;99.90;;;;;;5076196;28;20182;-59
2021/04/19 06:50:35;;;;;;;27.90;24.00;;;8.90;99.90;;;;;;5076398;28;20178;-58
2021/04/19 06:53:01;;;;;;;25.93;23.13;;;8.80;99.90;;;;;;5079447;28;20571;-59
2021/04/19 06:55:27;;;;;;;26.73;22.97;;;8.90;99.90;;;;;;5096040;28;20249;-52
2021/04/19 06:57:55;;;;;;;25.43;22.63;;;8.80;99.90;;;;;;5092145;28;20305;-52
2021/04/19 07:00:22;;;;;;;28.17;24.40;;;8.70;99.90;;;;;;5096924;28;20637;-50
2021/04/19 07:03:02;;;;;;;26.53;23.67;;;8.60;99.90;;;;;;5096163;28;20522;-53
2021/04/19 07:05:32;;;;;;;26.50;23.53;;;8.70;99.90;;;;;;5095850;28;20181;-53
2021/04/19 07:08:24;;;;;;;27.17;24.23;;;8.60;99.90;;;;;;5096805;28;20170;-51
2021/04/19 07:11:01;;;;;;;26.07;23.07;;;8.50;99.90;;;;;;5096424;28;20205;-59
2021/04/19 07:13:29;;;;;;;27.40;23.70;;;8.60;99.90;;;;;;5096051;28;20682;-59
2021/04/19 07:15:55;;;;;;;26.60;23.40;;;8.70;99.90;;;;;;5095890;28;20270;-59
2021/04/19 07:18:21;;;;;;;28.07;24.17;;;8.70;99.90;;;;;;5096526;28;20185;-59
2021/04/19 07:20:46;;;;;;;26.57;23.77;;;8.80;99.90;;;;;;5095825;28;20197;-52
2021/04/19 07:23:13;;;;;;;26.80;23.90;;;8.90;99.90;;;;;;5096421;28;20165;-60
2021/04/19 07:25:39;;;;;;;27.33;24.47;;;8.60;99.90;;;;;;5094979;28;20190;-60
2021/04/19 07:28:05;;;;;;;26.37;23.10;;;8.60;99.90;;;;;;5095475;28;20176;-56
2021/04/19 07:30:32;;;;;;;26.27;23.43;;;8.50;99.90;;;;;;5094105;28;20546;-56
2021/04/19 07:33:00;;;;;;;29.30;24.97;;;8.40;99.90;;;;;;5095383;28;20193;-52
2021/04/19 07:35:30;;;;;;;26.43;23.53;;;8.20;99.90;;;;;;5095134;28;20239;-55
2021/04/19 07:38:07;;;;;;;28.57;24.83;;;8.30;99.90;;;;;;5095173;28;20334;-57
2021/04/19 07:40:35;;;;;;;27.80;24.33;;;8.20;99.90;;;;;;5095851;28;20205;-57
2021/04/19 07:43:09;;;;;;;30.17;24.47;;;8.30;99.90;;;;;;5094156;28;20521;-57
2021/04/19 07:45:34;;;;;;;27.90;25.00;;;8.20;99.90;;;;;;5095316;28;20189;-57
2021/04/19 07:48:00;;;;;;;29.13;24.20;;;8.20;99.90;;;;;;5094758;28;20174;-54
2021/04/19 07:50:26;;;;;;;28.77;24.67;;;8.20;99.90;;;;;;5095187;28;20178;-50
2021/04/19 07:53:04;;;;;;;29.43;24.93;;;8.30;99.90;;;;;;5095682;28;20202;-51
2021/04/19 07:55:37;;;;;;;28.43;24.50;;;8.30;99.90;;;;;;5095555;28;20178;-60
2021/04/19 07:58:16;;;;;;;28.30;24.27;;;8.70;99.90;;;;;;5095270;28;20193;-58
2021/04/19 08:00:42;;;;;;;28.03;25.00;;;8.40;99.90;;;;;;5094958;28;20209;-48
2021/04/19 08:03:14;;;;;;;27.63;24.10;;;8.50;99.90;;;;;;5096150;28;20634;-54
2021/04/19 08:05:47;;;;;;;29.07;24.37;;;8.60;99.90;;;;;;5094968;28;20200;-54
2021/04/19 08:08:13;;;;;;;28.53;24.27;;;;;;;;;;5077526;28;20219;-59
2021/04/19 08:10:41;;;;;;;29.23;26.03;;;8.60;99.90;;;;;;5095041;28;20178;-58
2021/04/19 08:13:11;;;;;;;27.97;24.60;;;8.80;99.90;;;;;;5095144;28;20178;-55
2021/04/19 08:15:38;;;;;;;27.90;24.83;;;8.60;99.90;;;;;;5094282;28;20657;-50
2021/04/19 08:18:06;;;;;;;28.50;25.43;;;8.60;99.90;;;;;;5095122;28;20185;-57
2021/04/19 08:20:32;;;;;;;28.93;25.37;;;8.50;99.90;;;;;;5095004;28;20220;-57
2021/04/19 08:23:10;;;;;;;26.77;23.17;;;8.60;99.90;;;;;;5094703;28;20170;-51
2021/04/19 08:25:53;;;;;;;28.60;25.50;;;8.70;99.90;;;;;;5094627;28;20544;-51
2021/04/19 08:28:24;;;;;;;26.83;23.93;;;8.80;99.90;;;;;;5094890;28;20165;-53
2021/04/19 08:30:52;;;;;;;29.67;25.27;;;8.80;99.90;;;;;;5094374;28;20645;-50
2021/04/19 08:33:18;;;;;;;29.90;25.80;;;8.70;99.90;;;;;;5094638;28;20637;-50
2021/04/19 08:35:46;;;;;;;28.17;24.60;;;8.60;99.90;;;;;;5094806;28;20189;-54
2021/04/19 08:38:12;;;;;;;28.13;23.87;;;8.70;99.90;;;;;;5092865;28;20627;-49
2021/04/19 08:40:40;;;;;;;28.37;25.07;;;8.70;99.90;;;;;;5094240;28;20205;-59
2021/04/19 08:43:08;;;;;;;29.53;25.23;;;8.70;99.90;;;;;;5094425;28;20232;-52
2021/04/19 08:45:39;;;;;;;30.93;26.53;;;9.10;99.90;;;;;;5093815;28;20197;-52
2021/04/19 08:48:11;;;;;;;28.80;25.30;;;8.70;99.90;;;;;;5095239;28;20165;-51
2021/04/19 08:50:38;;;;;;;27.27;24.37;;;9.10;99.90;;;;;;5095513;28;20180;-56
2021/04/19 08:53:07;;;;;;;27.57;24.67;;;9.10;99.90;;;;;;5094400;28;20330;-53
2021/04/19 08:55:33;;;;;;;27.40;24.40;;;9.10;99.90;;;;;;5094768;28;20201;-51
2021/04/19 08:58:08;;;;;;;28.23;24.93;;;9.00;99.90;;;;;;5093002;28;20528;-59
2021/04/19 09:00:34;;;;;;;30.33;24.83;;;8.90;99.90;;;;;;5094932;28;20615;-52
2021/04/19 09:03:00;;;;;;;29.67;24.93;;;8.80;99.90;;;;;;5094776;28;20642;-58
2021/04/19 09:05:26;;;;;;;28.17;25.07;;;8.50;99.90;;;;;;5095251;28;20162;-57
2021/04/19 09:08:08;;;;;;;27.63;24.20;;;8.90;99.90;;;;;;5094664;28;20162;-55
2021/04/19 09:10:54;;;;;;;27.93;24.67;;;8.90;99.90;;;;;;5094907;28;20166;-58
2021/04/19 09:13:34;;;;;;;26.53;23.50;;;9.10;99.90;;;;;;5094138;28;20173;-59
2021/04/19 09:16:12;;;;;;;28.17;25.17;;;9.70;99.90;;;;;;5094250;28;20197;-55
2021/04/19 09:18:39;;;;;;;27.97;24.97;;;9.50;99.90;;;;;;5093786;28;20162;-54
2021/04/19 09:21:05;;;;;;;28.17;25.07;;;9.50;99.90;;;;;;5059453;28;20681;-51
2021/04/19 09:23:32;;;;;;;28.13;25.07;;;9.60;99.90;;;;;;5094008;28;20172;-54
2021/04/19 09:25:59;;;;;;;28.53;24.80;;;9.60;99.90;;;;;;5093871;28;20227;-58
2021/04/19 09:28:51;;;;;;;27.87;24.87;;;9.80;99.90;;;;;;5093611;28;20180;-54
2021/04/19 09:31:17;;;;;;;28.87;25.70;;;9.80;99.90;;;;;;5088554;28;20182;-61
2021/04/19 09:33:47;;;;;;;29.87;24.30;;;9.90;99.90;;;;;;5093378;28;20269;-50
2021/04/19 09:36:12;;;;;;;30.33;25.77;;;10.10;99.90;;;;;;5093626;28;20202;-60
2021/04/19 09:38:40;;;;;;;27.23;24.33;;;10.00;99.90;;;;;;5093429;28;20200;-60
2021/04/19 09:41:07;;;;;;;29.50;25.30;;;10.00;99.90;;;;;;5092388;28;20689;-57
2021/04/19 09:43:41;;;;;;;28.03;24.93;;;10.00;99.90;;;;;;5093585;28;20174;-60
2021/04/19 09:46:23;;;;;;;28.43;25.33;;;10.00;99.90;;;;;;5093602;28;20649;-49
2021/04/19 09:49:03;;;;;;;26.73;23.83;;;10.10;99.90;;;;;;5093716;28;20580;-50
2021/04/19 09:51:33;;;;;;;26.70;23.87;;;10.10;99.90;;;;;;5096809;28;20178;-52
2021/04/19 09:54:16;;;;;;;28.73;25.50;;;10.10;99.90;;;;;;5097188;28;20178;-52
2021/04/19 09:56:43;;;;;;;27.63;24.73;;;10.20;99.90;;;;;;5097396;28;20209;-51
2021/04/19 09:59:16;;;;;;;26.93;24.03;;;10.30;99.90;;;;;;5097442;28;20170;-52
2021/04/19 10:01:46;;;;;;;26.23;23.27;;;10.30;99.90;;;;;;5097058;28;20561;-51
2021/04/19 10:04:12;;;;;;;27.17;24.20;;;10.40;99.90;;;;;;5097078;28;20238;-58
2021/04/19 10:06:49;;;;;;;22.13;19.83;;;10.50;99.90;;;;;;5096928;28;20188;-60
2021/04/19 10:09:18;;;;;;;25.00;22.33;;;10.50;99.90;;;;;;5094544;28;20239;-60
2021/04/19 10:11:47;;;;;;;24.57;21.93;;;10.40;99.90;;;;;;5076256;28;20297;-58
2021/04/19 10:14:15;;;;;;;25.77;22.97;;;10.30;99.90;;;;;;5075790;28;20638;-49
2021/04/19 10:16:49;;;;;;;27.10;23.63;;;10.00;99.90;;;;;;5076697;28;20201;-52
2021/04/19 10:19:31;;;;;;;26.83;23.10;;;10.10;99.90;;;;;;5075669;28;20186;-52
2021/04/19 10:22:04;;;;;;;26.47;22.40;;;9.70;99.90;;;;;;5074124;28;20655;-50
2021/04/19 10:24:31;;;;;;;23.37;20.87;;;9.80;99.90;;;;;;5076254;28;20534;-53
2021/04/19 10:26:56;;;;;;;24.23;21.63;;;9.70;99.90;;;;;;5075500;28;20202;-60
2021/04/19 10:29:26;;;;;;;20.57;18.47;;;9.70;99.90;;;;;;5075727;28;20182;-61
2021/04/19 10:31:54;;;;;;;23.87;21.37;;;9.70;99.90;;;;;;5075892;28;20184;-60
2021/04/19 10:34:22;;;;;;;21.20;18.90;;;9.80;99.90;;;;;;5076170;28;20574;-60
2021/04/19 10:36:56;;;;;;;22.47;20.03;;;9.90;99.90;;;;;;5076257;28;20226;-54
2021/04/19 10:39:25;;;;;;;21.60;19.30;;;10.00;99.90;;;;;;5076267;28;20272;-59
2021/04/19 10:41:53;;;;;;;18.37;15.43;;;10.10;99.90;;;;;;5073234;28;20205;-58
2021/04/19 10:44:31;;;;;;;19.03;16.93;;;10.20;99.90;;;;;;5065710;28;20171;-51
2021/04/19 10:46:57;;;;;;;18.20;16.30;;;;;;;;;;5065036;28;20250;-59
2021/04/19 10:49:26;;;;;;;18.37;16.13;;;10.70;99.90;;;;;;5063862;28;20198;-61
2021/04/19 10:51:55;;;;;;;13.20;11.87;;;11.10;99.90;;;;;;5055815;28;20209;-60
2021/04/19 10:54:26;;;;;;;12.53;11.23;;;11.50;99.90;;;;;;5055007;28;20175;-55
2021/04/19 10:56:51;;;;;;;11.43;10.23;;;11.90;99.90;;;;;;5062430;28;20539;-59
2021/04/19 10:59:18;;;;;;;10.90;9.80;;;12.30;99.90;;;;;;5064046;28;20666;-50
2021/04/19 11:01:45;;;;;;;10.33;9.23;;;12.80;99.90;;;;;;5061717;28;20212;-50
2021/04/19 11:04:12;;;;;;;9.67;8.70;;;13.20;99.90;;;;;;5066293;28;20186;-61
2021/04/19 11:06:38;;;;;;;8.80;7.50;;;13.40;99.90;;;;;;5065049;28;20204;-60
2021/04/19 11:09:06;;;;;;;8.83;7.93;;;13.90;99.90;;;;;;5068616;28;20174;-61
2021/04/19 11:11:31;;;;;;;8.33;7.53;;;14.10;99.90;;;;;;5064386;28;20163;-59
2021/04/19 11:14:12;;;;;;;6.83;6.17;;;14.30;99.90;;;;;;5066295;28;20634;-55
2021/04/19 11:17:04;;;;;;;6.30;5.70;;;14.80;99.90;;;;;;5066092;28;20190;-54
2021/04/19 11:19:45;;;;;;;5.17;4.67;;;15.10;99.90;;;;;;5065499;28;20168;-52
2021/04/19 11:22:24;;;;;;;6.30;5.70;;;15.00;99.90;;;;;;5060578;28;20203;-52
2021/04/19 11:24:51;;;;;;;6.20;5.60;;;14.90;99.90;;;;;;5054307;28;20681;-56
2021/04/19 11:27:25;;;;;;;6.00;5.40;;;14.90;99.90;;;;;;5055807;28;20200;-60
2021/04/19 11:29:51;;;;;;;6.53;5.90;;;15.20;99.90;;;;;;5054683;28;20179;-62
2021/04/19 11:32:31;;;;;;;6.30;5.70;;;15.30;99.90;;;;;;5055122;28;20171;-48
2021/04/19 11:34:58;;;;;;;5.77;5.27;;;15.40;99.90;;;;;;5055756;28;20175;-59
2021/04/19 11:37:35;;;;;;;7.33;5.60;;;15.00;99.90;;;;;;5055187;28;20195;-61
2021/04/19 11:40:04;;;;;;;5.90;5.40;;;14.70;99.90;;;;;;5055245;28;20175;-59
2021/04/19 11:42:33;;;;;;;8.17;6.33;;;14.60;99.90;;;;;;5054774;28;20214;-59
2021/04/19 11:44:59;;;;;;;6.63;6.03;;;17.20;99.90;;;;;;5055265;28;20171;-53
2021/04/19 11:47:25;;;;;;;6.73;6.13;;;14.00;99.90;;;;;;5055098;28;20221;-57
2021/04/19 11:49:52;;;;;;;7.77;6.57;;;13.90;99.90;;;;;;5055052;28;20179;-54
2021/04/19 11:52:19;;;;;;;7.30;6.60;;;14.10;99.90;;;;;;5054751;28;20175;-55
2021/04/19 11:54:45;;;;;;;7.20;6.50;;;14.60;99.90;;;;;;5055021;28;20203;-48
2021/04/19 11:57:10;;;;;;;7.27;6.57;;;15.00;99.90;;;;;;5054669;28;20234;-58
2021/04/19 11:59:36;;;;;;;7.23;6.53;;;15.40;99.90;;;;;;5054793;28;20171;-50
2021/04/19 12:02:03;;;;;;;6.70;6.07;;;15.00;99.90;;;;;;5054651;28;20203;-60
2021/04/19 12:04:29;;;;;;;7.17;6.47;;;14.80;99.90;;;;;;5054751;28;20647;-51
2021/04/19 12:06:54;;;;;;;6.80;6.20;;;14.90;99.90;;;;;;5054331;28;20230;-60
2021/04/19 12:09:20;;;;;;;8.00;7.20;;;14.70;99.90;;;;;;5053898;28;20539;-54
2021/04/19 12:11:46;;;;;;;7.90;7.10;;;14.40;99.90;;;;;;5058528;28;20183;-61
2021/04/19 12:14:11;;;;;;;8.60;7.70;;;14.20;99.90;;;;;;5053194;28;20240;-58
2021/04/19 12:16:37;;;;;;;7.93;7.13;;;14.30;99.90;;;;;;5064145;28;20285;-54
2021/04/19 12:19:03;;;;;;;7.40;6.70;;;14.50;99.90;;;;;;5067917;28;20213;-53
2021/04/19 12:21:29;;;;;;;7.90;7.10;;;14.80;99.90;;;;;;5058037;28;20207;-61
2021/04/19 12:23:54;;;;;;;8.07;7.27;;;14.70;99.90;;;;;;5055068;28;20183;-52
2021/04/19 12:26:20;;;;;;;8.23;7.43;;;14.90;99.90;;;;;;5054032;28;20187;-50
2021/04/19 12:28:46;;;;;;;8.47;7.67;;;15.30;99.90;;;;;;5074170;28;20200;-51
2021/04/19 12:31:11;;;;;;;7.93;7.13;;;15.40;99.90;;;;;;5074023;28;20166;-51
2021/04/19 12:33:37;;;;;;;8.93;8.03;;;15.20;99.90;;;;;;5074240;28;20229;-59
2021/04/19 12:36:03;;;;;;;8.07;7.27;;;15.10;99.90;;;;;;5073735;28;20553;-51
2021/04/19 12:38:29;;;;;;;8.43;7.63;;;15.10;99.90;;;;;;5073795;28;20182;-57
2021/04/19 12:40:54;;;;;;;7.77;7.03;;;15.50;99.90;;;;;;5053612;28;20208;-59
2021/04/19 12:43:20;;;;;;;7.37;6.67;;;16.30;99.90;;;;;;5053519;28;20246;-58
2021/04/19 12:45:46;;;;;;;7.30;6.63;;;16.80;99.90;;;;;;5054715;28;20691;-58
2021/04/19 12:48:13;;;;;;;7.77;7.07;;;17.20;99.90;;;;;;5073050;28;20285;-62